Time;durP1;ratioP1;P1;durP2;ratioP2;P2;SDS_P1;SDS_P2;PMS_P1;PMS_P2;Temp;Humidity;BMP_temperature;BMP_pressure;BME280_temperature;BME280_humidity;BME280_pressure;Samples;Min_cycle;Max_cycle;Signal;HPM_P1;HPM_P2
2022/12/06 00:00:43;;;;;;;4.88;1.75;;;5.30;99.90;;;;;;5062823;28;20056;-44
2022/12/06 00:03:09;;;;;;;5.30;1.70;;;5.30;99.90;;;;;;5066188;28;20082;-47
2022/12/06 00:05:34;;;;;;;5.55;1.75;;;5.30;99.90;;;;;;5057651;28;20045;-47
2022/12/06 00:08:00;;;;;;;6.35;1.55;;;5.30;99.90;;;;;;5065014;28;20047;-43
2022/12/06 00:10:26;;;;;;;7.50;1.77;;;5.30;99.90;;;;;;5064594;28;20036;-45
2022/12/06 00:12:51;;;;;;;3.53;1.20;;;5.30;99.90;;;;;;5060565;28;20079;-46
2022/12/06 00:15:17;;;;;;;6.85;2.05;;;5.30;99.90;;;;;;5064713;28;20124;-44
2022/12/06 00:17:43;;;;;;;5.85;2.08;;;5.30;99.90;;;;;;5063217;28;20087;-47
2022/12/06 00:20:09;;;;;;;5.95;1.83;;;5.30;99.90;;;;;;5056279;28;20102;-45
2022/12/06 00:22:35;;;;;;;4.78;1.55;;;5.30;99.90;;;;;;5064391;28;20443;-49
2022/12/06 00:25:01;;;;;;;8.07;2.00;;;5.30;99.90;;;;;;5066828;28;20033;-45
2022/12/06 00:27:26;;;;;;;6.93;1.77;;;5.30;99.90;;;;;;5058520;28;20478;-44
2022/12/06 00:29:52;;;;;;;6.78;1.70;;;5.30;99.90;;;;;;5066346;28;20037;-44
2022/12/06 00:32:18;;;;;;;5.38;1.48;;;5.30;99.90;;;;;;5063452;28;20482;-54
2022/12/06 00:34:43;;;;;;;5.40;1.95;;;5.30;99.90;;;;;;5047425;28;20040;-42
2022/12/06 00:37:09;;;;;;;4.63;1.55;;;5.30;99.90;;;;;;5066651;28;20039;-41
2022/12/06 00:39:35;;;;;;;5.00;1.95;;;5.30;99.90;;;;;;5065115;28;20409;-47
2022/12/06 00:42:00;;;;;;;4.03;1.50;;;5.30;99.90;;;;;;5061872;28;20052;-43
2022/12/06 00:44:26;;;;;;;4.75;1.85;;;5.30;99.90;;;;;;5065540;28;20068;-41
2022/12/06 00:46:52;;;;;;;6.30;2.03;;;5.30;99.90;;;;;;5059821;28;20123;-46
2022/12/06 00:49:17;;;;;;;5.18;1.48;;;5.20;99.90;;;;;;5063876;28;20490;-41
2022/12/06 00:51:43;;;;;;;6.95;1.83;;;5.30;99.90;;;;;;5064429;28;20037;-41
2022/12/06 00:54:12;;;;;;;6.30;1.85;;;5.30;99.90;;;;;;5064169;28;20037;-46
2022/12/06 00:56:38;;;;;;;7.65;1.80;;;5.30;99.90;;;;;;5062025;28;20068;-44
2022/12/06 00:59:05;;;;;;;5.68;1.67;;;5.20;99.90;;;;;;5036648;28;20431;-45
2022/12/06 01:01:32;;;;;;;8.35;2.22;;;5.20;99.90;;;;;;5059419;28;20562;-44
2022/12/06 01:04:01;;;;;;;5.25;2.10;;;5.20;99.90;;;;;;5043276;28;20036;-47
2022/12/06 01:06:29;;;;;;;8.70;2.20;;;5.20;99.90;;;;;;5067317;28;20171;-44
2022/12/06 01:08:58;;;;;;;7.75;2.63;;;5.20;99.90;;;;;;5059947;28;20054;-44
2022/12/06 01:11:24;;;;;;;5.72;2.05;;;5.20;99.90;;;;;;5061622;28;20474;-43
2022/12/06 01:13:51;;;;;;;5.82;2.20;;;5.20;99.90;;;;;;5062936;28;20611;-44
2022/12/06 01:16:21;;;;;;;7.68;1.95;;;5.20;99.90;;;;;;5058123;28;20037;-43
2022/12/06 01:18:51;;;;;;;4.75;1.73;;;5.20;99.90;;;;;;5058325;28;20127;-44
2022/12/06 01:21:18;;;;;;;9.68;1.70;;;5.20;99.90;;;;;;5067832;28;20418;-46
2022/12/06 01:23:46;;;;;;;7.90;1.90;;;5.20;99.90;;;;;;5058896;28;20396;-46
2022/12/06 01:26:16;;;;;;;5.07;1.90;;;5.20;99.90;;;;;;5065590;28;20045;-43
2022/12/06 01:28:42;;;;;;;4.78;1.67;;;5.20;99.90;;;;;;5060883;28;20041;-46
2022/12/06 01:31:08;;;;;;;5.35;2.20;;;5.20;99.90;;;;;;5064540;28;20486;-46
2022/12/06 01:33:33;;;;;;;9.02;1.90;;;5.20;99.90;;;;;;5062909;28;20044;-37
2022/12/06 01:35:59;;;;;;;6.45;1.60;;;5.20;99.90;;;;;;5066720;28;20505;-36
2022/12/06 01:38:25;;;;;;;10.10;3.00;;;5.20;99.90;;;;;;5064367;28;20131;-37
2022/12/06 01:40:51;;;;;;;8.55;2.28;;;5.20;99.90;;;;;;5058276;28;21910;-36
2022/12/06 01:43:41;;;;;;;9.57;2.10;;;5.10;99.90;;;;;;5057346;28;20122;-37
2022/12/06 01:46:23;;;;;;;8.70;2.30;;;5.10;99.90;;;;;;5058302;28;20051;-39
2022/12/06 01:49:04;;;;;;;5.90;1.67;;;5.10;99.90;;;;;;5063480;28;20033;-38
2022/12/06 01:51:30;;;;;;;6.63;1.80;;;5.10;99.90;;;;;;5055587;28;20041;-37
2022/12/06 01:54:00;;;;;;;7.40;2.83;;;5.10;99.90;;;;;;5043513;28;20044;-38
2022/12/06 01:56:26;;;;;;;5.55;1.63;;;5.10;99.90;;;;;;5069204;28;20133;-37
2022/12/06 01:58:55;;;;;;;4.70;1.83;;;5.10;99.90;;;;;;5059752;28;20055;-37
2022/12/06 02:01:22;;;;;;;5.22;1.73;;;5.10;99.90;;;;;;5060084;28;20072;-43
2022/12/06 02:03:48;;;;;;;3.70;1.52;;;5.00;99.90;;;;;;5058056;28;20028;-38
2022/12/06 02:06:16;;;;;;;3.53;1.50;;;5.00;99.90;;;;;;5069554;28;20047;-39
2022/12/06 02:08:43;;;;;;;5.25;2.03;;;5.00;99.90;;;;;;5065420;28;20044;-37
2022/12/06 02:11:09;;;;;;;5.18;1.70;;;5.00;99.90;;;;;;5044893;28;20052;-39
2022/12/06 02:13:35;;;;;;;6.10;2.00;;;5.00;99.90;;;;;;5057323;28;20051;-37
2022/12/06 02:16:16;;;;;;;6.93;1.70;;;5.00;99.90;;;;;;5062396;28;20052;-37
2022/12/06 02:19:03;;;;;;;3.72;1.20;;;5.00;99.90;;;;;;5063652;28;20375;-37
2022/12/06 02:21:31;;;;;;;5.47;1.60;;;5.00;99.90;;;;;;5062269;28;20619;-44
2022/12/06 02:24:24;;;;;;;4.30;1.25;;;5.00;99.90;;;;;;5059311;28;20557;-38
2022/12/06 02:27:02;;;;;;;10.55;2.15;;;5.00;99.90;;;;;;5067234;28;20028;-38
2022/12/06 02:30:07;;;;;;;5.32;1.63;;;5.00;99.90;;;;;;5064705;28;20179;-37
2022/12/06 02:32:46;;;;;;;4.20;1.77;;;5.00;99.90;;;;;;5063106;28;20400;-37
2022/12/06 02:35:32;;;;;;;3.72;1.20;;;4.90;99.90;;;;;;5061491;28;20107;-37
2022/12/06 02:38:13;;;;;;;3.13;0.80;;;4.90;99.90;;;;;;5064368;28;20072;-37
2022/12/06 02:40:47;;;;;;;4.57;1.30;;;4.90;99.90;;;;;;5060429;28;20090;-36
2022/12/06 02:43:20;;;;;;;4.82;1.20;;;4.90;99.90;;;;;;5064279;28;20052;-37
2022/12/06 02:45:52;;;;;;;4.30;1.20;;;4.90;99.90;;;;;;5061728;28;20047;-37
2022/12/06 02:48:20;;;;;;;3.47;1.40;;;4.90;99.90;;;;;;5056723;28;20048;-37
2022/12/06 02:50:51;;;;;;;6.22;1.52;;;4.90;99.90;;;;;;5060701;28;20301;-37
2022/12/06 02:53:19;;;;;;;7.80;1.45;;;4.90;99.90;;;;;;5037375;28;20037;-38
2022/12/06 02:55:46;;;;;;;4.10;1.38;;;4.90;99.90;;;;;;5062984;28;20045;-38
2022/12/06 02:58:12;;;;;;;5.70;2.13;;;4.90;99.90;;;;;;5058623;28;20037;-37
2022/12/06 03:00:40;;;;;;;4.25;1.00;;;4.90;99.90;;;;;;5063441;28;20040;-37
2022/12/06 03:03:24;;;;;;;6.68;1.40;;;4.90;99.90;;;;;;5037298;28;20037;-38
2022/12/06 03:06:02;;;;;;;6.80;1.30;;;4.90;99.90;;;;;;5058894;28;20071;-36
2022/12/06 03:09:03;;;;;;;5.05;1.13;;;4.90;99.90;;;;;;5053417;28;20052;-36
2022/12/06 03:12:02;;;;;;;3.83;1.10;;;4.90;99.90;;;;;;5066976;28;20037;-36
2022/12/06 03:14:34;;;;;;;2.88;1.00;;;4.90;99.90;;;;;;5056244;28;20099;-37
2022/12/06 03:17:00;;;;;;;;;;;4.90;99.90;;;;;;5046641;28;20580;-37
2022/12/06 03:19:28;;;;;;;2.75;1.00;;;4.90;99.90;;;;;;5057225;28;19927;-37
2022/12/06 03:22:05;;;;;;;5.15;1.08;;;4.80;99.90;;;;;;5060932;28;20120;-37
2022/12/06 03:24:34;;;;;;;3.47;0.90;;;4.80;99.90;;;;;;5028708;28;20033;-36
2022/12/06 03:27:06;;;;;;;5.72;1.05;;;4.80;99.90;;;;;;5056558;28;20044;-39
2022/12/06 03:29:36;;;;;;;2.50;0.87;;;4.80;99.90;;;;;;5060908;28;20163;-36
2022/12/06 03:32:04;;;;;;;3.95;1.25;;;4.80;99.90;;;;;;5064869;28;20521;-36
2022/12/06 03:34:39;;;;;;;6.85;0.95;;;4.80;99.90;;;;;;5068101;28;20044;-38
2022/12/06 03:37:10;;;;;;;4.57;1.17;;;4.80;99.90;;;;;;5065673;28;20517;-38
2022/12/06 03:39:48;;;;;;;5.28;0.90;;;4.80;99.90;;;;;;5059828;28;20056;-37
2022/12/06 03:42:15;;;;;;;4.40;1.25;;;4.80;99.90;;;;;;5063085;28;20056;-37
2022/12/06 03:44:41;;;;;;;3.17;0.70;;;4.80;99.90;;;;;;5066541;28;20037;-40
2022/12/06 03:47:39;;;;;;;3.83;1.00;;;4.80;99.90;;;;;;5062698;28;20048;-37
2022/12/06 03:50:10;;;;;;;5.20;1.10;;;4.70;99.90;;;;;;5046189;28;20066;-37
2022/12/06 03:52:37;;;;;;;3.08;1.30;;;4.70;99.90;;;;;;5064220;28;20045;-37
2022/12/06 03:55:03;;;;;;;3.08;1.35;;;4.70;99.90;;;;;;5069636;28;20037;-38
2022/12/06 03:57:29;;;;;;;2.95;0.90;;;4.70;99.90;;;;;;5061122;28;20520;-37
2022/12/06 03:59:55;;;;;;;2.55;0.80;;;4.70;99.90;;;;;;5055892;28;20069;-37
2022/12/06 04:02:20;;;;;;;6.50;1.25;;;4.70;99.90;;;;;;5061363;28;20106;-37
2022/12/06 04:04:46;;;;;;;4.20;0.90;;;4.70;99.90;;;;;;5067175;28;20090;-37
2022/12/06 04:07:12;;;;;;;4.32;0.82;;;4.70;99.90;;;;;;5063341;28;20109;-37
2022/12/06 04:10:01;;;;;;;2.28;0.88;;;4.70;99.90;;;;;;5063632;28;20036;-39
2022/12/06 04:15:13;;;;;;;3.92;1.00;;;4.70;99.90;;;;;;5063770;28;20048;-38
2022/12/06 04:20:26;;;;;;;6.20;0.95;;;4.60;99.90;;;;;;5071153;28;20040;-36
2022/12/06 04:23:04;;;;;;;3.40;0.93;;;4.60;99.90;;;;;;5071574;28;20033;-39
2022/12/06 04:25:35;;;;;;;4.13;0.77;;;4.60;99.90;;;;;;5064016;28;20076;-37
2022/12/06 04:39:00;;;;;;;3.67;1.35;;;4.60;99.90;;;;;;5059824;28;20066;-36
2022/12/06 04:44:10;;;;;;;3.20;0.73;;;4.50;99.90;;;;;;5062984;28;20418;-37
2022/12/06 04:46:36;;;;;;;2.35;0.68;;;4.50;99.90;;;;;;5063781;28;20044;-37
2022/12/06 04:49:02;;;;;;;3.00;0.70;;;4.50;99.90;;;;;;5065175;28;20044;-38
2022/12/06 04:51:27;;;;;;;4.00;1.30;;;4.40;99.90;;;;;;5061606;28;20127;-39
2022/12/06 04:53:53;;;;;;;2.67;0.88;;;4.40;99.90;;;;;;5065377;28;20130;-37
2022/12/06 04:56:19;;;;;;;3.15;1.02;;;4.40;99.90;;;;;;5058417;28;20041;-36
2022/12/06 04:58:45;;;;;;;3.03;1.00;;;4.30;99.90;;;;;;5067244;28;20076;-38
2022/12/06 05:01:11;;;;;;;3.38;1.02;;;4.30;99.90;;;;;;5058193;28;20410;-37
2022/12/06 05:03:37;;;;;;;4.10;1.13;;;4.20;99.90;;;;;;5060581;28;20040;-37
2022/12/06 05:06:02;;;;;;;2.42;0.98;;;4.10;99.90;;;;;;5066479;28;20486;-37
2022/12/06 05:08:28;;;;;;;2.35;0.90;;;4.10;99.90;;;;;;5061716;28;20094;-38
2022/12/06 05:10:54;;;;;;;2.58;1.10;;;4.10;99.90;;;;;;5048331;28;20033;-36
2022/12/06 05:13:19;;;;;;;3.85;1.10;;;4.10;99.90;;;;;;5066201;28;20043;-37
2022/12/06 05:15:59;;;;;;;2.80;0.90;;;4.00;99.90;;;;;;5064353;28;20037;-38
2022/12/06 05:18:25;;;;;;;3.67;0.80;;;4.00;99.90;;;;;;5059096;28;20024;-37
2022/12/06 05:20:59;;;;;;;4.22;0.80;;;4.00;99.90;;;;;;5063042;28;20064;-39
2022/12/06 05:23:25;;;;;;;3.42;1.17;;;4.00;99.90;;;;;;5060540;28;20126;-44
2022/12/06 05:25:57;;;;;;;4.35;1.10;;;4.00;99.90;;;;;;5068368;28;20040;-36
2022/12/06 05:28:22;;;;;;;5.05;0.90;;;4.00;99.90;;;;;;5056537;28;20056;-38
2022/12/06 05:30:48;;;;;;;4.00;1.38;;;4.00;99.90;;;;;;5066373;28;20036;-44
2022/12/06 05:33:14;;;;;;;5.38;1.10;;;3.90;99.90;;;;;;5055740;28;20135;-37
2022/12/06 05:35:39;;;;;;;3.25;1.10;;;4.00;99.90;;;;;;5063321;28;20032;-37
2022/12/06 05:38:05;;;;;;;3.13;0.95;;;4.00;99.90;;;;;;5056069;28;20039;-38
2022/12/06 05:40:31;;;;;;;2.67;0.90;;;4.00;99.90;;;;;;5060850;28;20043;-37
2022/12/06 05:42:56;;;;;;;4.40;1.33;;;4.00;99.90;;;;;;5062637;28;20049;-37
2022/12/06 05:45:22;;;;;;;4.72;1.20;;;4.00;99.90;;;;;;5061877;28;20041;-37
2022/12/06 05:47:48;;;;;;;7.18;1.30;;;4.00;99.90;;;;;;5060222;28;20050;-37
2022/12/06 05:50:14;;;;;;;3.38;1.35;;;4.10;99.90;;;;;;5062320;28;20041;-37
2022/12/06 05:52:40;;;;;;;6.55;1.42;;;4.10;99.90;;;;;;5059124;28;20049;-37
2022/12/06 05:55:06;;;;;;;6.15;1.70;;;4.10;99.90;;;;;;5065191;28;20033;-38
2022/12/06 05:57:32;;;;;;;4.82;1.15;;;4.10;99.90;;;;;;5056705;28;20040;-36
2022/12/06 05:59:58;;;;;;;5.07;1.30;;;4.10;99.90;;;;;;5061307;28;20060;-39
2022/12/06 06:02:23;;;;;;;4.80;1.20;;;4.10;99.90;;;;;;5060416;28;20065;-36
2022/12/06 06:04:49;;;;;;;3.85;1.40;;;4.10;99.90;;;;;;5055449;28;20041;-37
2022/12/06 06:07:15;;;;;;;2.83;1.20;;;4.10;99.90;;;;;;5052345;28;20183;-37
2022/12/06 06:09:40;;;;;;;5.07;1.00;;;4.10;99.90;;;;;;5056673;28;20420;-39
2022/12/06 06:12:06;;;;;;;3.80;1.10;;;4.10;99.90;;;;;;5063452;28;20502;-37
2022/12/06 06:14:32;;;;;;;3.13;1.13;;;4.10;99.90;;;;;;5058104;28;20037;-38
2022/12/06 06:16:57;;;;;;;3.88;1.38;;;4.10;99.90;;;;;;5060626;28;20854;-37
2022/12/06 06:19:23;;;;;;;5.40;1.33;;;4.20;99.90;;;;;;5058196;28;20521;-37
2022/12/06 06:21:49;;;;;;;3.60;1.73;;;4.20;99.90;;;;;;5055592;28;20037;-38
2022/12/06 06:24:15;;;;;;;2.58;1.17;;;4.20;99.90;;;;;;5059705;28;20478;-37
2022/12/06 06:26:41;;;;;;;2.80;1.08;;;4.20;99.90;;;;;;5055109;28;20043;-37
2022/12/06 06:29:06;;;;;;;4.00;1.13;;;4.20;99.90;;;;;;5038591;28;20126;-40
2022/12/06 06:31:32;;;;;;;3.67;1.25;;;4.20;99.90;;;;;;5054828;28;20040;-37
2022/12/06 06:33:58;;;;;;;3.38;1.38;;;4.20;99.90;;;;;;5050159;28;20036;-40
2022/12/06 06:36:23;;;;;;;3.33;1.00;;;4.30;99.90;;;;;;5062075;28;20044;-37
2022/12/06 06:38:49;;;;;;;11.60;1.40;;;4.30;99.90;;;;;;5053260;28;20520;-37
2022/12/06 06:41:14;;;;;;;2.15;0.75;;;4.30;99.90;;;;;;5041865;28;20103;-38
2022/12/06 06:43:40;;;;;;;4.97;1.70;;;4.30;99.90;;;;;;5034945;28;20076;-38
2022/12/06 06:46:06;;;;;;;3.08;1.13;;;4.30;99.90;;;;;;5061779;28;20507;-37
2022/12/06 06:48:35;;;;;;;2.45;0.93;;;4.20;99.90;;;;;;5056262;28;20071;-36
2022/12/06 06:51:06;;;;;;;6.45;1.10;;;4.20;99.90;;;;;;5053470;28;20510;-36
2022/12/06 06:53:32;;;;;;;2.83;0.90;;;4.20;99.90;;;;;;5060314;28;20131;-37
2022/12/06 06:55:58;;;;;;;2.53;0.90;;;4.10;99.90;;;;;;5061419;28;20490;-37
2022/12/06 06:58:24;;;;;;;3.42;0.80;;;4.10;99.90;;;;;;5044017;28;20036;-38
2022/12/06 07:00:55;;;;;;;3.55;1.00;;;4.00;99.90;;;;;;5068522;28;20040;-37
2022/12/06 07:03:22;;;;;;;3.15;0.80;;;4.00;99.90;;;;;;5062549;28;20044;-38
2022/12/06 07:06:06;;;;;;;3.30;0.82;;;3.90;99.90;;;;;;5062957;28;20513;-37
2022/12/06 07:08:32;;;;;;;2.10;0.63;;;3.80;99.90;;;;;;5066843;28;20044;-35
2022/12/06 07:10:58;;;;;;;2.25;0.70;;;3.70;99.90;;;;;;5062031;28;20042;-37
2022/12/06 07:13:25;;;;;;;4.75;0.90;;;3.60;99.90;;;;;;5060726;28;20502;-38
2022/12/06 07:15:51;;;;;;;3.35;0.82;;;3.60;99.90;;;;;;5055782;28;20053;-37
2022/12/06 07:18:18;;;;;;;3.13;0.52;;;3.50;99.90;;;;;;5062272;28;20482;-38
2022/12/06 07:20:48;;;;;;;3.03;0.93;;;3.50;99.90;;;;;;5066998;28;20055;-39
2022/12/06 07:23:14;;;;;;;2.38;0.50;;;3.40;99.90;;;;;;5056987;28;20397;-39
2022/12/06 07:25:40;;;;;;;2.38;1.00;;;3.30;99.90;;;;;;5067641;28;20055;-37
2022/12/06 07:28:06;;;;;;;3.45;1.02;;;3.30;99.90;;;;;;5059968;28;20036;-39
2022/12/06 07:30:32;;;;;;;4.25;0.80;;;3.20;99.90;;;;;;5063749;28;20044;-38
2022/12/06 07:32:58;;;;;;;3.58;0.90;;;3.20;99.90;;;;;;5053732;28;20040;-38
2022/12/06 07:35:24;;;;;;;3.25;0.88;;;3.10;99.90;;;;;;5067831;28;20436;-38
2022/12/06 07:37:50;;;;;;;3.78;0.95;;;3.10;99.90;;;;;;5054355;28;20037;-37
2022/12/06 07:40:17;;;;;;;2.05;0.80;;;3.00;99.90;;;;;;5064910;28;20118;-37
2022/12/06 07:45:27;;;;;;;2.13;0.55;;;3.00;99.90;;;;;;5058348;28;20175;-37
2022/12/06 07:47:53;;;;;;;2.50;0.95;;;3.00;99.90;;;;;;5066601;28;20064;-37
2022/12/06 07:50:21;;;;;;;2.63;0.90;;;3.00;99.90;;;;;;5059105;28;20036;-39
2022/12/06 07:52:48;;;;;;;2.08;0.73;;;2.90;99.90;;;;;;5069992;28;20052;-37
2022/12/06 07:55:15;;;;;;;1.48;0.50;;;2.90;99.90;;;;;;5065926;28;20040;-38
2022/12/06 07:57:42;;;;;;;2.13;0.90;;;2.80;99.90;;;;;;5064600;28;20037;-37
2022/12/06 08:00:09;;;;;;;2.58;0.90;;;2.80;99.90;;;;;;5059326;28;20533;-37
2022/12/06 08:02:35;;;;;;;2.47;0.85;;;2.80;99.90;;;;;;5065827;28;20140;-38
2022/12/06 08:05:01;;;;;;;3.05;0.90;;;2.80;99.90;;;;;;5064824;28;20119;-38
2022/12/06 08:07:26;;;;;;;3.00;1.00;;;2.80;99.90;;;;;;5068270;28;20041;-37
2022/12/06 08:09:52;;;;;;;2.22;0.77;;;2.80;99.90;;;;;;5063333;28;20464;-36
2022/12/06 08:12:20;;;;;;;2.53;0.85;;;2.80;99.90;;;;;;5059445;28;20124;-39
2022/12/06 08:14:46;;;;;;;2.80;0.80;;;2.80;99.90;;;;;;5037214;28;20043;-38
2022/12/06 08:17:12;;;;;;;2.28;0.70;;;2.80;99.90;;;;;;5062857;28;20035;-37
2022/12/06 08:19:37;;;;;;;2.13;0.70;;;2.80;99.90;;;;;;5061103;28;20028;-37
2022/12/06 08:22:03;;;;;;;2.63;0.50;;;2.80;99.90;;;;;;5065527;28;20041;-37
2022/12/06 08:24:29;;;;;;;1.80;0.70;;;2.80;99.90;;;;;;5070179;28;20037;-37
2022/12/06 08:26:55;;;;;;;2.20;0.70;;;2.80;99.90;;;;;;5071580;28;20480;-39
2022/12/06 08:29:21;;;;;;;2.60;0.68;;;2.80;99.90;;;;;;5061473;28;20060;-37
2022/12/06 08:31:47;;;;;;;2.92;0.68;;;2.80;99.90;;;;;;5065328;28;20478;-36
2022/12/06 08:34:14;;;;;;;1.98;0.70;;;2.80;99.90;;;;;;5064759;28;20068;-42
2022/12/06 08:36:40;;;;;;;2.22;0.75;;;2.80;99.90;;;;;;5068647;28;20037;-38
2022/12/06 08:39:07;;;;;;;1.52;0.70;;;2.90;99.90;;;;;;5064692;28;20037;-39
2022/12/06 08:44:18;;;;;;;2.28;0.88;;;3.00;99.90;;;;;;5072411;28;20043;-38
2022/12/06 08:46:45;;;;;;;2.65;0.70;;;3.10;99.90;;;;;;5067484;28;20086;-37
2022/12/06 08:49:11;;;;;;;3.88;0.93;;;3.10;99.90;;;;;;5068545;28;20048;-38
2022/12/06 08:51:37;;;;;;;2.25;0.80;;;3.20;99.90;;;;;;5067830;28;20043;-40
2022/12/06 08:54:04;;;;;;;5.63;1.17;;;3.30;99.90;;;;;;5062550;28;20040;-38
2022/12/06 08:56:30;;;;;;;3.08;0.85;;;3.40;99.90;;;;;;5057536;28;20044;-48
2022/12/06 08:58:56;;;;;;;2.97;1.00;;;3.40;99.90;;;;;;5062847;28;20025;-38
2022/12/06 09:01:28;;;;;;;2.75;1.05;;;3.50;99.90;;;;;;5065393;28;20055;-40
2022/12/06 09:03:54;;;;;;;7.45;1.10;;;3.60;99.90;;;;;;5062409;28;20028;-46
2022/12/06 09:06:21;;;;;;;3.47;1.10;;;3.60;99.90;;;;;;5061547;28;20045;-42
2022/12/06 09:08:47;;;;;;;2.65;1.27;;;3.70;99.90;;;;;;5059262;28;20033;-46
2022/12/06 09:11:15;;;;;;;3.97;1.27;;;3.80;99.90;;;;;;5058031;28;20498;-37
2022/12/06 09:13:41;;;;;;;4.03;1.75;;;3.90;99.90;;;;;;5063061;28;20044;-37
2022/12/06 09:16:19;;;;;;;5.10;1.48;;;4.00;99.90;;;;;;5059569;28;20044;-37
2022/12/06 09:18:45;;;;;;;6.53;2.03;;;4.10;99.90;;;;;;5060054;28;20036;-36
2022/12/06 09:21:18;;;;;;;4.75;1.70;;;4.20;99.90;;;;;;5062721;28;20494;-36
2022/12/06 09:23:44;;;;;;;5.25;1.88;;;4.30;99.90;;;;;;5069253;28;20036;-37
2022/12/06 09:26:10;;;;;;;6.05;1.98;;;4.50;99.90;;;;;;5062510;28;20037;-37
2022/12/06 09:28:39;;;;;;;4.85;2.20;;;4.60;99.90;;;;;;5041420;28;20079;-38
2022/12/06 09:31:05;;;;;;;7.20;2.85;;;4.70;99.90;;;;;;5064425;28;20402;-37
2022/12/06 09:33:31;;;;;;;6.35;2.83;;;4.80;99.90;;;;;;5063214;28;20086;-37
2022/12/06 09:36:00;;;;;;;6.75;2.30;;;4.80;99.90;;;;;;5066431;28;20037;-38
2022/12/06 09:38:28;;;;;;;4.05;1.60;;;4.90;99.90;;;;;;5057700;28;20051;-38
2022/12/06 09:41:08;;;;;;;5.15;1.92;;;4.90;99.90;;;;;;5057261;28;20505;-37
2022/12/06 09:44:00;;;;;;;3.47;1.10;;;4.90;99.90;;;;;;5044860;28;20048;-37
2022/12/06 09:46:37;;;;;;;3.65;1.05;;;4.90;99.90;;;;;;5043185;28;20049;-38
2022/12/06 09:49:15;;;;;;;1.85;0.55;;;4.90;99.90;;;;;;5046781;28;20040;-36
2022/12/06 09:51:40;;;;;;;3.17;0.82;;;4.90;99.90;;;;;;5046625;28;20053;-37
2022/12/06 09:54:19;;;;;;;2.92;1.00;;;4.90;99.90;;;;;;5044245;28;20790;-38
2022/12/06 09:57:00;;;;;;;2.55;1.10;;;5.00;99.90;;;;;;5045162;28;20052;-43
2022/12/06 09:59:51;;;;;;;3.17;0.82;;;5.00;99.90;;;;;;5048042;28;20040;-42
2022/12/06 10:02:31;;;;;;;2.05;0.70;;;5.00;99.90;;;;;;5047242;28;20055;-42
2022/12/06 10:05:19;;;;;;;3.72;0.88;;;5.10;99.90;;;;;;5037332;28;20488;-45
2022/12/06 10:07:55;;;;;;;3.20;0.80;;;5.10;99.90;;;;;;5049167;28;20068;-45
2022/12/06 10:11:00;;;;;;;3.25;0.88;;;5.10;99.90;;;;;;5050196;28;20535;-40
2022/12/06 10:13:58;;;;;;;7.57;0.93;;;5.10;99.90;;;;;;4993158;28;20513;-42
2022/12/06 10:16:49;;;;;;;2.67;0.82;;;5.20;99.90;;;;;;5038195;28;20497;-47
2022/12/06 10:19:33;;;;;;;2.22;0.57;;;5.20;99.90;;;;;;5047194;28;20458;-39
2022/12/06 10:22:15;;;;;;;2.60;0.63;;;5.30;99.90;;;;;;5046423;28;20040;-46
2022/12/06 10:25:16;;;;;;;2.85;0.95;;;5.30;99.90;;;;;;5039246;28;20100;-42
2022/12/06 10:27:42;;;;;;;5.18;0.80;;;5.30;99.90;;;;;;5046576;28;20045;-48
2022/12/06 10:30:11;;;;;;;4.72;0.70;;;5.40;99.90;;;;;;5041678;28;20034;-42
2022/12/06 10:32:53;;;;;;;4.93;0.80;;;5.40;99.90;;;;;;5041685;28;20072;-55
2022/12/06 10:35:59;;;;;;;5.05;0.80;;;5.50;99.90;;;;;;5044122;28;20045;-49
2022/12/06 10:38:35;;;;;;;3.42;1.45;;;5.50;99.90;;;;;;4998364;28;20482;-51
2022/12/06 10:41:05;;;;;;;2.15;0.60;;;5.70;99.90;;;;;;5005158;28;20516;-46
2022/12/06 10:43:54;;;;;;;2.45;0.60;;;5.90;99.90;;;;;;5027519;28;20060;-45
2022/12/06 10:49:45;;;;;;;5.28;0.57;;;6.20;99.90;;;;;;5039976;28;20053;-46
2022/12/06 10:52:27;;;;;;;1.77;0.60;;;6.20;99.90;;;;;;5046720;28;20047;-45
2022/12/06 10:55:08;;;;;;;2.92;0.77;;;6.20;99.90;;;;;;5045366;28;20510;-45
2022/12/06 10:57:48;;;;;;;2.00;0.60;;;6.10;99.90;;;;;;5046514;28;20159;-47
2022/12/06 11:00:20;;;;;;;6.82;0.65;;;6.10;99.90;;;;;;5044309;28;20041;-44
2022/12/06 11:02:54;;;;;;;2.93;0.60;;;6.00;99.90;;;;;;5036765;28;20044;-41
2022/12/06 11:05:41;;;;;;;3.00;0.68;;;6.00;99.90;;;;;;5043512;28;20045;-46
2022/12/06 11:08:32;;;;;;;3.70;0.80;;;6.10;99.90;;;;;;5061947;28;20049;-47
2022/12/06 11:10:59;;;;;;;4.10;0.70;;;6.40;99.90;;;;;;5044137;28;20112;-49
2022/12/06 11:13:41;;;;;;;3.00;0.60;;;6.70;99.90;;;;;;5031574;28;20120;-48
2022/12/06 11:16:16;;;;;;;3.58;0.65;;;6.70;99.90;;;;;;5041431;28;20067;-53
2022/12/06 11:18:43;;;;;;;2.88;1.02;;;6.60;99.90;;;;;;5041409;28;20067;-46
2022/12/06 11:21:51;;;;;;;4.10;0.73;;;6.50;99.90;;;;;;5044443;28;20167;-42
2022/12/06 11:24:20;;;;;;;1.98;0.70;;;6.40;99.90;;;;;;4992433;28;20031;-45
2022/12/06 11:26:51;;;;;;;5.35;0.77;;;6.40;99.90;;;;;;4996875;28;20054;-43
2022/12/06 11:29:18;;;;;;;1.95;0.50;;;6.30;99.90;;;;;;5018692;28;21026;-44
2022/12/06 11:31:54;;;;;;;6.90;1.25;;;6.30;99.90;;;;;;5029928;28;20102;-42
2022/12/06 11:34:46;;;;;;;2.92;0.60;;;6.30;99.90;;;;;;5035821;28;20457;-42
2022/12/06 11:37:18;;;;;;;2.70;0.70;;;6.30;99.90;;;;;;5038553;28;20049;-43
2022/12/06 11:39:44;;;;;;;3.28;0.68;;;6.40;99.90;;;;;;5037478;28;20514;-40
2022/12/06 11:42:14;;;;;;;3.50;0.63;;;6.40;99.90;;;;;;5052735;28;20084;-43
2022/12/06 11:44:44;;;;;;;1.42;0.60;;;6.50;99.90;;;;;;5041009;28;20037;-41
2022/12/06 11:47:15;;;;;;;3.08;0.70;;;6.50;99.90;;;;;;5037062;28;20400;-43
2022/12/06 11:49:43;;;;;;;4.07;1.02;;;6.70;99.90;;;;;;5028104;28;20107;-43
2022/12/06 11:52:37;;;;;;;3.28;0.80;;;6.70;99.90;;;;;;5043435;28;20045;-42
2022/12/06 11:55:26;;;;;;;1.52;0.73;;;6.70;99.90;;;;;;5032195;28;20060;-42
2022/12/06 11:57:58;;;;;;;2.92;0.70;;;6.80;99.90;;;;;;5037468;28;20096;-41
2022/12/06 12:00:24;;;;;;;3.67;0.87;;;6.80;99.90;;;;;;5042337;28;20112;-41
2022/12/06 12:02:53;;;;;;;5.07;0.90;;;6.80;99.90;;;;;;5043431;28;20299;-45
2022/12/06 12:05:22;;;;;;;1.77;0.63;;;6.90;99.90;;;;;;5047155;28;20048;-43
2022/12/06 12:07:55;;;;;;;3.80;0.60;;;7.00;99.90;;;;;;5044545;28;20040;-47
2022/12/06 12:10:26;;;;;;;3.63;0.80;;;7.20;99.90;;;;;;5047464;28;20040;-43
2022/12/06 12:15:39;;;;;;;4.93;0.75;;;7.70;99.90;;;;;;5042835;28;20135;-44
2022/12/06 12:18:05;;;;;;;1.85;0.70;;;7.70;99.90;;;;;;5039816;28;20402;-47
2022/12/06 12:20:38;;;;;;;4.30;0.82;;;7.60;99.90;;;;;;5043514;28;20033;-46
2022/12/06 12:23:18;;;;;;;2.78;0.45;;;7.50;99.90;;;;;;5043504;28;20045;-44
2022/12/06 12:26:01;;;;;;;3.13;0.47;;;7.30;99.90;;;;;;5045590;28;20060;-44
2022/12/06 12:28:33;;;;;;;0.90;0.40;;;7.20;99.90;;;;;;5043216;28;20564;-43
2022/12/06 12:31:19;;;;;;;4.10;0.40;;;7.20;99.90;;;;;;5047137;28;20041;-47
2022/12/06 12:33:46;;;;;;;3.25;0.40;;;7.10;99.90;;;;;;5036620;28;20091;-44
2022/12/06 12:36:30;;;;;;;2.25;0.45;;;7.00;99.90;;;;;;5036350;28;20453;-41
2022/12/06 12:38:59;;;;;;;4.00;0.65;;;7.00;99.90;;;;;;5031751;28;20032;-40
2022/12/06 12:41:28;;;;;;;1.77;0.60;;;6.90;99.90;;;;;;5044193;28;20086;-43
2022/12/06 12:44:01;;;;;;;2.25;0.50;;;6.90;99.90;;;;;;5064186;28;20141;-44
2022/12/06 12:46:28;;;;;;;6.10;0.70;;;6.90;99.90;;;;;;5055854;28;20049;-44
2022/12/06 12:48:54;;;;;;;5.22;1.00;;;6.90;99.90;;;;;;5057375;28;20092;-44
2022/12/06 12:51:40;;;;;;;2.15;0.60;;;6.90;99.90;;;;;;5056803;28;20036;-41
2022/12/06 12:54:21;;;;;;;1.98;0.70;;;6.90;99.90;;;;;;5058344;28;20489;-43
2022/12/06 12:56:48;;;;;;;1.65;0.63;;;6.90;99.90;;;;;;5057158;28;20132;-42
2022/12/06 12:59:21;;;;;;;2.03;0.70;;;6.90;99.90;;;;;;5062878;28;20047;-42
2022/12/06 13:02:01;;;;;;;2.50;0.80;;;6.90;99.90;;;;;;5057165;28;20086;-42
2022/12/06 13:04:41;;;;;;;2.75;0.63;;;6.90;99.90;;;;;;5040063;28;20044;-41
2022/12/06 13:07:16;;;;;;;2.85;0.60;;;6.90;99.90;;;;;;5059212;28;20555;-44
2022/12/06 13:10:04;;;;;;;2.22;0.50;;;6.80;99.90;;;;;;5059921;28;20040;-43
2022/12/06 13:13:03;;;;;;;1.60;0.50;;;6.80;99.90;;;;;;5060713;28;20391;-45
2022/12/06 13:15:35;;;;;;;1.25;0.40;;;6.80;99.90;;;;;;5051334;28;20095;-45
2022/12/06 13:18:18;;;;;;;1.38;0.50;;;6.80;99.90;;;;;;5062637;28;20044;-46
2022/12/06 13:20:45;;;;;;;;;;;6.80;99.90;;;;;;5055481;28;20398;-43
2022/12/06 13:23:22;;;;;;;2.35;0.30;;;6.80;99.90;;;;;;5056436;28;20157;-43
2022/12/06 13:25:51;;;;;;;2.05;0.60;;;6.80;99.90;;;;;;5064935;28;20028;-45
2022/12/06 13:28:24;;;;;;;2.50;0.65;;;6.80;99.90;;;;;;5067433;28;20048;-41
2022/12/06 13:30:56;;;;;;;2.63;0.47;;;6.80;99.90;;;;;;5064645;28;20044;-43
2022/12/06 13:33:26;;;;;;;4.50;0.77;;;6.90;99.90;;;;;;5060488;28;20044;-43
2022/12/06 13:35:59;;;;;;;2.00;0.40;;;6.90;99.90;;;;;;5060663;28;20043;-41
2022/12/06 13:38:33;;;;;;;1.52;0.35;;;7.00;99.90;;;;;;5059485;28;20036;-43
2022/12/06 13:41:04;;;;;;;1.02;0.30;;;7.00;99.90;;;;;;5049284;28;20736;-45
2022/12/06 13:43:29;;;;;;;2.08;0.30;;;7.00;99.90;;;;;;5054390;28;20525;-45
2022/12/06 13:46:20;;;;;;;1.92;0.32;;;7.00;99.90;;;;;;5059755;28;20049;-47
2022/12/06 13:48:57;;;;;;;2.33;0.40;;;7.00;99.90;;;;;;5058331;28;20045;-45